createdAt,value
2023-05-05T00:00:11.285Z,20.20
2023-05-05T00:02:37.877Z,20.10
2023-05-05T00:05:04.287Z,20.17
2023-05-05T00:07:30.611Z,20.15
2023-05-05T00:09:56.971Z,20.12
2023-05-05T00:12:23.310Z,20.08
2023-05-05T00:14:49.628Z,20.02
2023-05-05T00:17:16.064Z,19.97
2023-05-05T00:19:42.423Z,19.96
2023-05-05T00:22:08.834Z,19.96
2023-05-05T00:24:35.258Z,19.93
2023-05-05T00:27:01.580Z,19.90
2023-05-05T00:29:27.914Z,19.87
2023-05-05T00:31:54.291Z,19.83
2023-05-05T00:34:20.619Z,19.78
2023-05-05T00:36:46.921Z,19.75
2023-05-05T00:39:13.290Z,19.94
2023-05-05T00:41:39.889Z,19.96
2023-05-05T00:44:06.234Z,19.84
2023-05-05T00:46:32.642Z,19.70
2023-05-05T00:48:59.132Z,19.65
2023-05-05T00:51:25.622Z,19.62
2023-05-05T00:53:52.014Z,19.52
2023-05-05T00:56:18.421Z,19.51
2023-05-05T00:58:44.889Z,19.41
2023-05-05T01:01:11.336Z,19.42
2023-05-05T01:03:37.926Z,19.36
2023-05-05T01:06:04.350Z,19.45
2023-05-05T01:08:30.741Z,19.33
2023-05-05T01:10:57.190Z,19.29
2023-05-05T01:13:23.505Z,19.22
2023-05-05T01:15:51.123Z,19.22
2023-05-05T01:18:17.558Z,19.13
2023-05-05T01:20:43.920Z,19.24
2023-05-05T01:23:10.309Z,19.20
2023-05-05T01:25:36.633Z,19.13
2023-05-05T01:28:02.969Z,19.09
2023-05-05T01:30:29.345Z,19.01
2023-05-05T01:32:55.723Z,18.99
2023-05-05T01:35:22.102Z,18.93
2023-05-05T01:37:49.720Z,18.86
2023-05-05T01:40:16.051Z,19.05
2023-05-05T01:42:42.350Z,18.95
2023-05-05T01:45:08.700Z,18.89
2023-05-05T01:47:35.038Z,18.80
2023-05-05T01:50:01.416Z,18.78
2023-05-05T01:52:28.007Z,18.63
2023-05-05T01:54:54.358Z,18.78
2023-05-05T01:57:20.687Z,18.56
2023-05-05T01:59:48.189Z,18.48
2023-05-05T02:02:14.510Z,18.45
2023-05-05T02:04:40.919Z,18.41
2023-05-05T02:07:07.283Z,18.37
2023-05-05T02:09:33.741Z,18.33
2023-05-05T02:12:00.191Z,18.37
2023-05-05T02:14:26.590Z,18.33
2023-05-05T02:16:52.909Z,18.28
2023-05-05T02:19:19.815Z,18.26
2023-05-05T02:21:46.224Z,18.24
2023-05-05T02:24:12.598Z,18.23
2023-05-05T02:26:38.937Z,18.20
2023-05-05T02:29:05.331Z,18.16
2023-05-05T02:31:31.763Z,18.13
2023-05-05T02:33:58.143Z,18.12
2023-05-05T02:36:24.718Z,18.09
2023-05-05T02:38:55.353Z,18.06
2023-05-05T02:41:23.504Z,18.03
2023-05-05T02:43:50.105Z,17.99
2023-05-05T02:46:18.034Z,17.97
2023-05-05T02:48:46.443Z,17.94
2023-05-05T02:51:12.931Z,17.93
2023-05-05T02:53:39.345Z,17.91
2023-05-05T02:56:05.655Z,17.85
2023-05-05T02:58:35.958Z,17.82
2023-05-05T03:01:04.375Z,17.81
2023-05-05T03:03:30.977Z,17.76
2023-05-05T03:05:57.852Z,17.80
2023-05-05T03:08:24.212Z,17.74
2023-05-05T03:10:50.556Z,17.67
2023-05-05T03:13:17.404Z,17.57
2023-05-05T03:15:45.154Z,17.60
2023-05-05T03:18:12.513Z,17.56
2023-05-05T03:20:42.832Z,17.47
2023-05-05T03:23:11.393Z,17.43
2023-05-05T03:25:37.810Z,17.41
2023-05-05T03:28:04.398Z,17.49
2023-05-05T03:30:30.995Z,17.39
2023-05-05T03:32:57.629Z,17.35
2023-05-05T03:35:24.659Z,17.36
2023-05-05T03:37:51.006Z,17.32
2023-05-05T03:40:17.958Z,17.30
2023-05-05T03:42:44.415Z,17.26
2023-05-05T03:45:11.055Z,17.22
2023-05-05T03:47:38.613Z,17.32
2023-05-05T03:50:05.529Z,16.80
2023-05-05T03:52:32.179Z,16.73
2023-05-05T03:54:58.603Z,16.68
2023-05-05T03:57:25.109Z,16.64
2023-05-05T03:59:51.570Z,16.59
2023-05-05T04:02:18.905Z,16.57
2023-05-05T04:04:46.122Z,16.54
2023-05-05T04:07:13.019Z,16.49
2023-05-05T04:09:39.416Z,16.47
2023-05-05T04:12:05.851Z,16.46
2023-05-05T04:14:32.287Z,16.46
2023-05-05T04:16:58.956Z,16.45
2023-05-05T04:19:25.590Z,16.76
2023-05-05T04:21:52.097Z,16.83
2023-05-05T04:24:18.887Z,16.89
2023-05-05T04:26:45.307Z,16.88
2023-05-05T04:29:12.064Z,16.89
2023-05-05T04:31:39.076Z,16.89
2023-05-05T04:34:06.094Z,16.86
2023-05-05T04:36:32.799Z,16.53
2023-05-05T04:38:59.539Z,16.15
2023-05-05T04:41:27.670Z,15.69
2023-05-05T04:43:55.641Z,15.22
2023-05-05T04:46:22.152Z,15.06
2023-05-05T04:48:48.684Z,15.18
2023-05-05T04:51:15.266Z,15.30
2023-05-05T04:53:41.752Z,15.31
2023-05-05T04:56:08.313Z,15.37
2023-05-05T04:58:34.829Z,15.45
2023-05-05T05:01:01.549Z,15.55
2023-05-05T05:03:28.301Z,15.67
2023-05-05T05:05:54.764Z,15.77
2023-05-05T05:08:21.361Z,15.86
2023-05-05T05:10:47.954Z,15.98
2023-05-05T05:13:14.332Z,16.05
2023-05-05T05:15:40.793Z,16.13
2023-05-05T05:18:07.547Z,16.18
2023-05-05T05:20:34.047Z,16.19
2023-05-05T05:23:00.839Z,16.18
2023-05-05T05:25:27.954Z,16.14
2023-05-05T05:28:08.424Z,16.09
2023-05-05T05:30:39.523Z,16.01
2023-05-05T05:33:07.885Z,16.00
2023-05-05T05:35:34.419Z,16.03
2023-05-05T05:38:00.966Z,16.10
2023-05-05T05:40:27.359Z,16.10
2023-05-05T05:42:54.735Z,16.17
2023-05-05T05:45:21.331Z,16.21
2023-05-05T05:47:47.876Z,16.35
2023-05-05T05:50:14.330Z,16.51
2023-05-05T05:52:41.310Z,16.69
2023-05-05T05:55:07.884Z,16.86
2023-05-05T05:57:34.795Z,17.03
2023-05-05T06:00:02.869Z,17.16
2023-05-05T06:02:38.276Z,17.28
2023-05-05T06:05:07.029Z,17.37
2023-05-05T06:07:33.758Z,17.50
2023-05-05T06:10:10.789Z,17.60
2023-05-05T06:12:46.174Z,17.74
2023-05-05T06:15:12.551Z,17.86
2023-05-05T06:17:39.151Z,17.78
2023-05-05T06:20:05.979Z,17.57
2023-05-05T06:22:32.485Z,17.35
2023-05-05T06:24:59.457Z,17.20
2023-05-05T06:27:26.091Z,17.16
2023-05-05T06:29:52.483Z,17.17
2023-05-05T06:32:18.833Z,17.02
2023-05-05T06:34:45.261Z,17.23
2023-05-05T06:37:11.631Z,17.35
2023-05-05T06:39:37.978Z,17.50
2023-05-05T06:42:04.518Z,17.71
2023-05-05T06:44:32.559Z,17.89
2023-05-05T06:46:58.970Z,18.04
2023-05-05T06:49:25.655Z,18.21
2023-05-05T06:51:52.035Z,18.35
2023-05-05T06:54:18.419Z,18.51
2023-05-05T06:56:44.891Z,18.68
2023-05-05T06:59:11.332Z,18.84
2023-05-05T07:01:37.677Z,18.86
2023-05-05T07:04:04.137Z,18.86
2023-05-05T07:06:30.514Z,18.90
2023-05-05T07:08:56.931Z,18.99
2023-05-05T07:11:23.436Z,19.00
2023-05-05T07:13:49.855Z,19.05
2023-05-05T07:16:16.302Z,19.11
2023-05-05T07:18:42.848Z,19.23
2023-05-05T07:21:09.241Z,19.38
2023-05-05T07:23:35.607Z,19.50
2023-05-05T07:26:02.030Z,19.61
2023-05-05T07:28:28.418Z,19.74
2023-05-05T07:30:54.813Z,19.91
2023-05-05T07:33:21.238Z,20.00
2023-05-05T07:35:47.631Z,20.12
2023-05-05T07:38:14.023Z,20.18
2023-05-05T07:40:40.419Z,20.26
2023-05-05T07:43:07.055Z,20.62
2023-05-05T07:45:33.647Z,20.81
2023-05-05T07:48:00.221Z,20.94
2023-05-05T07:50:26.730Z,21.06
2023-05-05T07:53:02.144Z,21.15
2023-05-05T07:55:36.910Z,21.26
2023-05-05T07:58:03.283Z,21.12
2023-05-05T08:00:29.677Z,21.19
2023-05-05T08:02:56.193Z,21.26
2023-05-05T08:05:22.637Z,21.22
2023-05-05T08:07:49.033Z,21.30
2023-05-05T08:10:15.495Z,21.44
2023-05-05T08:12:41.904Z,21.55
2023-05-05T08:15:08.830Z,21.85
2023-05-05T08:17:35.592Z,22.16
2023-05-05T08:20:01.942Z,22.28
2023-05-05T08:22:28.355Z,22.49
2023-05-05T08:24:54.773Z,22.58
2023-05-05T08:27:21.143Z,22.54
2023-05-05T08:29:47.572Z,22.32
2023-05-05T08:32:13.991Z,22.56
2023-05-05T08:34:40.327Z,22.23
2023-05-05T08:37:06.866Z,22.43
2023-05-05T08:39:33.260Z,22.40
2023-05-05T08:41:59.733Z,22.55
2023-05-05T08:44:26.223Z,22.58
2023-05-05T08:46:52.636Z,22.62
2023-05-05T08:49:19.057Z,22.75
2023-05-05T08:51:45.456Z,22.88
2023-05-05T08:54:11.896Z,23.01
2023-05-05T08:56:38.324Z,23.19
2023-05-05T08:59:04.709Z,23.21
2023-05-05T09:01:31.158Z,23.27
2023-05-05T09:03:57.582Z,23.42
2023-05-05T09:06:23.966Z,23.45
2023-05-05T09:08:50.420Z,23.36
2023-05-05T09:11:16.785Z,23.44
2023-05-05T09:13:49.214Z,23.65
2023-05-05T09:16:15.642Z,23.77
2023-05-05T09:18:42.017Z,23.79
2023-05-05T09:21:08.464Z,24.00
2023-05-05T09:23:34.860Z,23.73
2023-05-05T09:26:01.179Z,23.64
2023-05-05T09:28:27.649Z,24.16
2023-05-05T09:30:54.108Z,24.26
2023-05-05T09:33:20.499Z,24.24
2023-05-05T09:35:46.949Z,24.21
2023-05-05T09:38:13.359Z,24.22
2023-05-05T09:40:39.726Z,24.18
2023-05-05T09:43:06.215Z,24.11
2023-05-05T09:45:32.648Z,24.10
2023-05-05T09:48:00.528Z,23.81
2023-05-05T09:50:27.287Z,23.85
2023-05-05T09:52:53.810Z,23.70
2023-05-05T09:55:20.255Z,23.67
2023-05-05T09:57:46.698Z,23.62
2023-05-05T10:00:13.299Z,23.59
2023-05-05T10:02:39.712Z,23.40
2023-05-05T10:05:06.207Z,23.94
2023-05-05T10:07:32.666Z,23.94
2023-05-05T10:09:59.044Z,23.92
2023-05-05T10:12:25.434Z,23.96
2023-05-05T10:14:51.863Z,23.91
2023-05-05T10:17:18.224Z,23.94
2023-05-05T10:19:44.609Z,23.93
2023-05-05T10:22:11.052Z,24.08
2023-05-05T10:24:37.453Z,24.16
2023-05-05T10:27:03.861Z,24.20
2023-05-05T10:29:30.343Z,24.16
2023-05-05T10:31:56.790Z,23.78
2023-05-05T10:34:23.282Z,23.74
2023-05-05T10:36:49.742Z,23.72
2023-05-05T10:39:16.103Z,23.69
2023-05-05T10:41:42.505Z,23.69
2023-05-05T10:44:09.054Z,23.84
2023-05-05T10:46:35.599Z,24.01
2023-05-05T10:49:02.114Z,24.29
2023-05-05T10:51:39.355Z,24.61
2023-05-05T10:54:06.661Z,24.71
2023-05-05T10:56:33.142Z,25.00
2023-05-05T10:59:00.640Z,24.92
2023-05-05T11:01:27.438Z,25.08
2023-05-05T11:03:54.044Z,25.37
2023-05-05T11:06:20.445Z,25.41
2023-05-05T11:08:46.815Z,25.54
2023-05-05T11:11:13.327Z,25.48
2023-05-05T11:13:39.730Z,25.54
2023-05-05T11:16:06.100Z,25.47
2023-05-05T11:18:32.523Z,25.47
2023-05-05T11:20:59.010Z,25.55
2023-05-05T11:23:25.428Z,25.59
2023-05-05T11:25:51.812Z,25.65
2023-05-05T11:28:18.183Z,25.70
2023-05-05T11:30:44.615Z,25.61
2023-05-05T11:33:11.524Z,25.71
2023-05-05T11:35:37.921Z,26.05
2023-05-05T11:38:04.329Z,26.26
2023-05-05T11:40:30.798Z,26.51
2023-05-05T11:42:57.153Z,26.53
2023-05-05T11:45:23.567Z,26.54
2023-05-05T11:47:50.104Z,26.62
2023-05-05T11:50:16.517Z,26.66
2023-05-05T11:52:42.870Z,26.67
2023-05-05T11:55:09.300Z,26.78
2023-05-05T11:57:35.646Z,26.73
2023-05-05T12:00:02.017Z,26.85
2023-05-05T12:02:31.036Z,26.92
2023-05-05T12:04:57.543Z,27.04
2023-05-05T12:07:23.914Z,27.06
2023-05-05T12:09:50.346Z,27.25
2023-05-05T12:12:16.725Z,27.12
2023-05-05T12:14:43.101Z,27.38
2023-05-05T12:17:09.528Z,27.22
2023-05-05T12:19:35.905Z,27.00
2023-05-05T12:22:02.311Z,27.29
2023-05-05T12:24:28.766Z,27.61
2023-05-05T12:26:55.134Z,27.78
2023-05-05T12:29:21.491Z,27.96
2023-05-05T12:31:47.976Z,28.08
2023-05-05T12:34:14.393Z,28.13
2023-05-05T12:36:40.718Z,27.84
2023-05-05T12:39:07.122Z,28.11
2023-05-05T12:41:33.522Z,28.32
2023-05-05T12:43:59.965Z,28.28
2023-05-05T12:46:26.532Z,28.33
2023-05-05T12:48:53.017Z,28.45
2023-05-05T12:51:19.402Z,28.54
2023-05-05T12:53:45.981Z,28.40
2023-05-05T12:56:12.353Z,28.50
2023-05-05T12:58:38.688Z,28.57
2023-05-05T13:01:05.130Z,28.68
2023-05-05T13:03:31.575Z,28.34
2023-05-05T13:05:58.085Z,27.97
2023-05-05T13:08:24.592Z,27.42
2023-05-05T13:10:50.941Z,26.96
2023-05-05T13:13:17.399Z,26.65
2023-05-05T13:15:43.949Z,26.86
2023-05-05T13:18:10.394Z,27.02
2023-05-05T13:20:36.835Z,27.20
2023-05-05T13:23:03.256Z,27.40
2023-05-05T13:25:29.607Z,27.57
2023-05-05T13:27:56.031Z,27.72
2023-05-05T13:30:22.443Z,27.75
2023-05-05T13:32:48.848Z,27.76
2023-05-05T13:35:16.564Z,27.88
2023-05-05T13:37:43.297Z,28.03
2023-05-05T13:40:09.664Z,28.03
2023-05-05T13:42:36.012Z,28.49
2023-05-05T13:45:02.389Z,28.88
2023-05-05T13:47:28.740Z,28.97
2023-05-05T13:49:55.148Z,29.01
2023-05-05T13:52:21.616Z,29.39
2023-05-05T13:54:47.949Z,29.54
2023-05-05T13:57:14.401Z,29.31
2023-05-05T13:59:40.867Z,29.71
2023-05-05T14:02:07.248Z,29.87
2023-05-05T14:04:33.800Z,29.92
2023-05-05T14:07:00.281Z,29.99
2023-05-05T14:09:26.663Z,30.09
2023-05-05T14:11:53.056Z,30.21
2023-05-05T14:14:19.423Z,30.09
2023-05-05T14:16:47.287Z,30.38
2023-05-05T14:19:14.900Z,30.47
2023-05-05T14:21:41.260Z,30.49
2023-05-05T14:24:07.582Z,30.65
2023-05-05T14:26:33.916Z,30.61
2023-05-05T14:29:00.288Z,30.48
2023-05-05T14:31:26.779Z,30.52
2023-05-05T14:33:53.269Z,30.49
2023-05-05T14:36:19.652Z,30.51
2023-05-05T14:38:46.040Z,30.44
2023-05-05T14:41:12.451Z,30.55
2023-05-05T14:43:38.830Z,30.64
2023-05-05T14:46:05.341Z,30.68
2023-05-05T14:48:31.788Z,30.80
2023-05-05T14:50:58.167Z,30.93
2023-05-05T14:53:24.476Z,30.76
2023-05-05T14:55:50.815Z,30.83
2023-05-05T14:58:17.193Z,30.96
2023-05-05T15:00:43.536Z,31.02
2023-05-05T15:03:10.123Z,31.26
2023-05-05T15:05:36.552Z,31.30
2023-05-05T15:08:02.886Z,31.30
2023-05-05T15:10:29.219Z,31.16
2023-05-05T15:12:55.596Z,31.25
2023-05-05T15:15:21.974Z,31.22
2023-05-05T15:17:48.342Z,31.24
2023-05-05T15:20:14.764Z,31.14
2023-05-05T15:22:41.096Z,31.46
2023-05-05T15:25:07.697Z,31.50
2023-05-05T15:27:34.303Z,31.36
2023-05-05T15:30:00.682Z,31.38
2023-05-05T15:32:27.048Z,31.39
2023-05-05T15:34:53.461Z,31.39
2023-05-05T15:37:19.772Z,31.34
2023-05-05T15:39:46.143Z,31.47
2023-05-05T15:42:12.559Z,31.54
2023-05-05T15:44:38.896Z,31.59
2023-05-05T15:47:05.343Z,31.61
2023-05-05T15:49:31.885Z,31.66
2023-05-05T15:51:58.272Z,31.65
2023-05-05T15:54:24.634Z,31.66
2023-05-05T15:56:51.176Z,31.65
2023-05-05T15:59:18.610Z,31.72
2023-05-05T16:01:45.503Z,31.55
2023-05-05T16:04:11.908Z,31.67
2023-05-05T16:06:38.251Z,31.71
2023-05-05T16:09:04.593Z,31.57
2023-05-05T16:11:30.985Z,31.56
2023-05-05T16:13:57.309Z,31.58
2023-05-05T16:16:23.651Z,31.56
2023-05-05T16:18:50.124Z,31.58
2023-05-05T16:21:16.461Z,31.69
2023-05-05T16:23:42.765Z,31.58
2023-05-05T16:26:09.143Z,31.61
2023-05-05T16:28:35.473Z,31.58
2023-05-05T16:31:01.822Z,31.60
2023-05-05T16:33:28.180Z,31.58
2023-05-05T16:35:54.509Z,31.54
2023-05-05T16:38:20.874Z,31.69
2023-05-05T16:40:47.226Z,31.72
2023-05-05T16:43:13.573Z,31.72
2023-05-05T16:45:39.882Z,31.63
2023-05-05T16:48:08.809Z,31.70
2023-05-05T16:50:35.480Z,31.67
2023-05-05T16:53:01.852Z,31.66
2023-05-05T16:55:28.218Z,31.63
2023-05-05T16:57:54.606Z,31.59
2023-05-05T17:00:20.947Z,31.55
2023-05-05T17:02:47.384Z,31.40
2023-05-05T17:05:13.807Z,31.35
2023-05-05T17:07:40.267Z,31.30
2023-05-05T17:10:06.706Z,31.30
2023-05-05T17:12:33.077Z,31.25
2023-05-05T17:14:59.464Z,31.41
2023-05-05T17:17:25.910Z,31.57
2023-05-05T17:19:52.394Z,31.57
2023-05-05T17:22:18.719Z,31.55
2023-05-05T17:24:45.080Z,31.54
2023-05-05T17:27:11.395Z,31.65
2023-05-05T17:29:37.710Z,31.36
2023-05-05T17:32:04.178Z,31.06
2023-05-05T17:34:30.593Z,31.03
2023-05-05T17:36:56.924Z,30.98
2023-05-05T17:39:23.309Z,30.93
2023-05-05T17:41:49.648Z,30.90
2023-05-05T17:44:15.965Z,31.11
2023-05-05T17:46:42.315Z,31.17
2023-05-05T17:49:08.651Z,30.91
2023-05-05T17:51:34.958Z,30.82
2023-05-05T17:54:01.576Z,30.76
2023-05-05T17:56:27.954Z,30.86
2023-05-05T17:58:54.300Z,30.99
2023-05-05T18:01:20.695Z,30.79
2023-05-05T18:03:47.082Z,30.57
2023-05-05T18:06:13.450Z,30.61
2023-05-05T18:08:39.804Z,30.56
2023-05-05T18:11:06.128Z,30.75
2023-05-05T18:13:32.457Z,30.39
2023-05-05T18:15:58.853Z,30.28
2023-05-05T18:18:25.254Z,30.33
2023-05-05T18:20:51.614Z,30.29
2023-05-05T18:23:18.194Z,30.25
2023-05-05T18:25:44.543Z,30.24
2023-05-05T18:28:10.870Z,30.22
2023-05-05T18:30:37.237Z,30.20
2023-05-05T18:33:03.599Z,30.16
2023-05-05T18:35:29.961Z,30.07
2023-05-05T18:37:56.467Z,30.01
2023-05-05T18:40:22.785Z,29.99
2023-05-05T18:42:49.113Z,29.91
2023-05-05T18:45:15.511Z,29.86
2023-05-05T18:47:41.893Z,29.82
2023-05-05T18:50:08.290Z,29.76
2023-05-05T18:52:34.660Z,29.75
2023-05-05T18:55:00.980Z,29.69
2023-05-05T18:57:27.320Z,29.66
2023-05-05T18:59:53.678Z,29.61
2023-05-05T19:02:20.076Z,29.51
2023-05-05T19:04:46.464Z,29.32
2023-05-05T19:07:16.341Z,29.25
2023-05-05T19:09:50.354Z,29.15
2023-05-05T19:12:16.769Z,29.10
2023-05-05T19:14:43.087Z,29.03
2023-05-05T19:17:09.411Z,28.95
2023-05-05T19:19:35.782Z,28.87
2023-05-05T19:22:03.008Z,28.80
2023-05-05T19:24:30.039Z,28.73
2023-05-05T19:26:56.410Z,28.66
2023-05-05T19:29:22.749Z,28.61
2023-05-05T19:31:49.128Z,28.52
2023-05-05T19:34:15.518Z,28.47
2023-05-05T19:36:41.877Z,28.41
2023-05-05T19:39:08.313Z,28.34
2023-05-05T19:41:34.772Z,28.30
2023-05-05T19:44:01.181Z,28.25
2023-05-05T19:46:27.600Z,28.20
2023-05-05T19:48:54.026Z,28.13
2023-05-05T19:51:20.341Z,28.08
2023-05-05T19:53:46.710Z,28.03
2023-05-05T19:56:13.073Z,27.99
2023-05-05T19:58:39.395Z,27.96
2023-05-05T20:01:05.766Z,27.91
2023-05-05T20:03:32.260Z,27.87
2023-05-05T20:05:58.609Z,27.83
2023-05-05T20:08:24.955Z,27.84
2023-05-05T20:10:51.318Z,27.83
2023-05-05T20:13:17.702Z,27.82
2023-05-05T20:15:44.098Z,27.76
2023-05-05T20:18:10.521Z,27.75
2023-05-05T20:20:36.846Z,27.71
2023-05-05T20:23:03.201Z,27.68
2023-05-05T20:25:29.574Z,27.40
2023-05-05T20:27:55.909Z,27.57
2023-05-05T20:30:22.250Z,27.53
2023-05-05T20:32:48.683Z,27.50
2023-05-05T20:35:15.033Z,27.49
2023-05-05T20:37:41.365Z,27.47
2023-05-05T20:40:07.852Z,27.41
2023-05-05T20:42:34.435Z,27.33
2023-05-05T20:45:00.768Z,27.33
2023-05-05T20:47:27.152Z,27.31
2023-05-05T20:49:53.498Z,27.28
2023-05-05T20:52:19.807Z,27.26
2023-05-05T20:54:46.164Z,27.17
2023-05-05T20:57:12.492Z,27.19
2023-05-05T20:59:38.915Z,27.15
2023-05-05T21:02:05.314Z,27.12
2023-05-05T21:04:31.870Z,27.08
2023-05-05T21:06:58.280Z,27.01
2023-05-05T21:09:24.862Z,26.96
2023-05-05T21:11:51.225Z,26.91
2023-05-05T21:14:17.560Z,26.87
2023-05-05T21:16:43.959Z,26.82
2023-05-05T21:19:10.321Z,26.77
2023-05-05T21:21:36.633Z,26.74
2023-05-05T21:24:04.286Z,26.70
2023-05-05T21:26:31.766Z,26.65
2023-05-05T21:28:58.104Z,26.59
2023-05-05T21:31:24.492Z,26.55
2023-05-05T21:33:50.802Z,26.50
2023-05-05T21:36:17.118Z,26.46
2023-05-05T21:38:43.516Z,26.41
2023-05-05T21:41:09.868Z,26.35
2023-05-05T21:43:36.238Z,26.31
2023-05-05T21:46:02.731Z,26.24
2023-05-05T21:48:29.133Z,26.18
2023-05-05T21:50:55.445Z,26.13
2023-05-05T21:53:21.828Z,26.08
2023-05-05T21:55:48.213Z,26.01
2023-05-05T21:58:14.513Z,26.09
2023-05-05T22:00:40.911Z,26.12
2023-05-05T22:03:07.377Z,26.08
2023-05-05T22:05:33.777Z,26.06
2023-05-05T22:08:00.161Z,25.99
2023-05-05T22:10:26.478Z,25.94
2023-05-05T22:12:53.009Z,25.83
2023-05-05T22:15:19.388Z,25.76
2023-05-05T22:17:45.848Z,25.64
2023-05-05T22:20:12.208Z,25.52
2023-05-05T22:22:38.602Z,25.43
2023-05-05T22:25:04.955Z,25.35
2023-05-05T22:27:31.262Z,25.27
2023-05-05T22:29:57.655Z,25.23
2023-05-05T22:32:23.978Z,25.13
2023-05-05T22:34:50.362Z,25.08
2023-05-05T22:37:16.724Z,25.01
2023-05-05T22:39:43.110Z,24.92
2023-05-05T22:42:09.495Z,24.88
2023-05-05T22:44:35.848Z,24.84
2023-05-05T22:47:02.210Z,24.78
2023-05-05T22:49:28.624Z,24.73
2023-05-05T22:51:55.116Z,24.69
2023-05-05T22:54:21.468Z,24.63
2023-05-05T22:56:48.380Z,24.60
2023-05-05T22:59:14.736Z,24.57
2023-05-05T23:01:41.185Z,24.50
2023-05-05T23:04:07.586Z,24.44
2023-05-05T23:06:33.965Z,24.39
2023-05-05T23:09:00.294Z,24.35
2023-05-05T23:11:26.607Z,24.28
2023-05-05T23:13:53.004Z,24.13
2023-05-05T23:16:19.368Z,24.06
2023-05-05T23:18:45.736Z,24.14
2023-05-05T23:21:12.159Z,24.10
2023-05-05T23:23:38.501Z,24.04
2023-05-05T23:26:04.834Z,23.99
2023-05-05T23:28:31.193Z,23.96
2023-05-05T23:30:57.580Z,23.92
2023-05-05T23:33:23.922Z,23.88
2023-05-05T23:35:50.319Z,23.84
2023-05-05T23:38:16.644Z,23.80
2023-05-05T23:40:42.989Z,23.70
2023-05-05T23:43:09.363Z,23.68
2023-05-05T23:45:35.699Z,23.62
2023-05-05T23:48:02.037Z,23.59
2023-05-05T23:50:28.414Z,23.56
2023-05-05T23:52:54.716Z,23.61
2023-05-05T23:55:21.080Z,23.61
2023-05-05T23:57:47.433Z,23.60
